Time;durP1;ratioP1;P1;durP2;ratioP2;P2;SDS_P1;SDS_P2;PMS_P1;PMS_P2;Temp;Humidity;BMP_temperature;BMP_pressure;BME280_temperature;BME280_humidity;BME280_pressure;Samples;Min_cycle;Max_cycle;Signal;HPM_P1;HPM_P2
2022/09/18 12:09:24;;;;;;;1.63;0.70;;;;;;;;;;5067033;28;20377;-86
2022/09/18 12:12:03;;;;;;;1.87;0.53;;;;;;;;;;5046766;28;20425;-89
2022/09/18 12:14:44;;;;;;;1.33;0.40;;;;;;;;;;5049112;28;20465;-88
2022/09/18 12:17:20;;;;;;;1.42;0.50;;;;;;;;;;5047289;28;20386;-87
2022/09/18 12:19:49;;;;;;;2.67;0.60;;;;;;;;;;5049940;28;20385;-90
2022/09/18 12:22:34;;;;;;;3.50;0.40;;;;;;;;;;5049513;28;20378;-91
2022/09/18 12:25:00;;;;;;;1.73;0.50;;;;;;;;;;5049549;28;20432;-89
2022/09/18 12:27:31;;;;;;;1.35;0.40;;;;;;;;;;5049556;28;20486;-90
2022/09/18 12:30:08;;;;;;;1.38;0.50;;;;;;;;;;5049448;28;20883;-90
2022/09/18 12:32:53;;;;;;;1.50;0.60;;;;;;;;;;5049749;28;20833;-87
2022/09/18 12:35:21;;;;;;;1.30;0.50;;;;;;;;;;5049609;28;20414;-88
2022/09/18 12:37:51;;;;;;;0.90;0.47;;;;;;;;;;5049212;28;20378;-89
2022/09/18 12:40:36;;;;;;;1.27;0.50;;;;;;;;;;5063142;28;20384;-87
2022/09/18 12:43:18;;;;;;;3.10;0.52;;;;;;;;;;5069118;28;20376;-89
2022/09/18 12:45:58;;;;;;;2.63;0.52;;;;;;;;;;5069086;28;20384;-90
2022/09/18 12:48:27;;;;;;;1.80;0.50;;;;;;;;;;5069041;28;20450;-89
2022/09/18 12:51:07;;;;;;;1.45;0.60;;;;;;;;;;5068990;28;20377;-89
2022/09/18 12:53:43;;;;;;;1.05;0.38;;;;;;;;;;5068766;28;20850;-87
2022/09/18 12:56:27;;;;;;;0.90;0.50;;;;;;;;;;5068739;28;20377;-87
2022/09/18 12:58:53;;;;;;;1.20;0.47;;;;;;;;;;5067875;28;20389;-87
2022/09/18 13:01:34;;;;;;;1.52;0.52;;;;;;;;;;5068119;28;20785;-89
2022/09/18 13:04:04;;;;;;;3.30;0.70;;;;;;;;;;5069984;28;20534;-89
2022/09/18 13:06:35;;;;;;;1.85;0.60;;;;;;;;;;5067254;28;20401;-89
2022/09/18 13:09:13;;;;;;;1.30;0.55;;;;;;;;;;5067090;28;20456;-90
2022/09/18 13:11:44;;;;;;;2.05;0.60;;;;;;;;;;5068013;28;20740;-90
2022/09/18 13:14:13;;;;;;;2.03;0.60;;;;;;;;;;5067633;28;20467;-90
2022/09/18 13:16:39;;;;;;;1.02;0.50;;;;;;;;;;5068653;28;20373;-90
2022/09/18 13:19:27;;;;;;;1.98;0.55;;;;;;;;;;5063622;28;20412;-87
2022/09/18 13:21:54;;;;;;;1.58;0.70;;;;;;;;;;5055013;28;20374;-90
2022/09/18 13:24:26;;;;;;;1.65;0.68;;;;;;;;;;5053752;28;20389;-89
2022/09/18 13:26:56;;;;;;;1.73;0.77;;;;;;;;;;5053926;28;20381;-93
2022/09/18 13:29:41;;;;;;;1.30;0.73;;;;;;;;;;5054878;28;20474;-90
2022/09/18 13:32:07;;;;;;;1.80;0.60;;;;;;;;;;5055111;28;20381;-85
2022/09/18 13:34:33;;;;;;;2.13;0.60;;;;;;;;;;5055080;28;20388;-86
2022/09/18 13:37:05;;;;;;;1.20;0.52;;;;;;;;;;5056774;28;20381;-85
2022/09/18 13:39:31;;;;;;;2.05;0.60;;;;;;;;;;5054499;28;20388;-87
2022/09/18 13:41:58;;;;;;;0.93;0.45;;;;;;;;;;5057053;28;20381;-85
2022/09/18 13:44:26;;;;;;;1.73;0.60;;;;;;;;;;5053508;28;20392;-85
2022/09/18 13:46:53;;;;;;;2.00;0.50;;;;;;;;;;5054427;28;20389;-85
2022/09/18 13:49:29;;;;;;;1.60;0.52;;;;;;;;;;5054584;28;20381;-87
2022/09/18 13:51:55;;;;;;;1.00;0.52;;;;;;;;;;5055095;28;20392;-86
2022/09/18 13:54:22;;;;;;;1.45;0.60;;;;;;;;;;5054304;28;20408;-86
2022/09/18 13:57:09;;;;;;;2.08;0.68;;;;;;;;;;5054318;28;20373;-86
2022/09/18 13:59:44;;;;;;;2.33;0.60;;;;;;;;;;5044225;28;20381;-86
2022/09/18 14:02:22;;;;;;;1.33;0.60;;;;;;;;;;5031191;28;20386;-86
2022/09/18 14:04:49;;;;;;;1.92;0.80;;;;;;;;;;5031361;28;20398;-86
2022/09/18 14:07:18;;;;;;;1.60;0.60;;;;;;;;;;5034072;28;20911;-86
2022/09/18 14:10:05;;;;;;;1.98;0.63;;;;;;;;;;5033956;28;20367;-87
2022/09/18 14:12:35;;;;;;;1.73;0.73;;;;;;;;;;5033654;28;20726;-85
2022/09/18 14:15:19;;;;;;;1.95;0.70;;;;;;;;;;5033957;28;20389;-85
2022/09/18 14:18:04;;;;;;;1.77;0.63;;;;;;;;;;5034074;28;20423;-86
2022/09/18 14:20:31;;;;;;;0.97;0.60;;;;;;;;;;5026481;28;20921;-88
2022/09/18 14:23:17;;;;;;;1.40;0.60;;;;;;;;;;5031110;28;20479;-88
2022/09/18 14:25:45;;;;;;;2.45;0.70;;;;;;;;;;5023689;28;20441;-90
2022/09/18 14:28:13;;;;;;;1.35;0.80;;;;;;;;;;5024094;28;20413;-90
2022/09/18 14:30:39;;;;;;;1.40;0.80;;;;;;;;;;5030903;28;20736;-89
2022/09/18 14:33:15;;;;;;;2.20;0.93;;;;;;;;;;5031820;28;20379;-88
2022/09/18 14:35:50;;;;;;;2.30;1.00;;;;;;;;;;5033659;28;20772;-87
2022/09/18 14:38:16;;;;;;;2.50;1.00;;;;;;;;;;5030008;28;20434;-88
2022/09/18 14:40:47;;;;;;;2.50;0.80;;;;;;;;;;5030318;28;20402;-90
2022/09/18 14:43:16;;;;;;;1.25;0.80;;;;;;;;;;5033597;28;20387;-88
2022/09/18 14:45:42;;;;;;;0.90;0.70;;;;;;;;;;5031301;28;20503;-88
2022/09/18 14:48:25;;;;;;;1.52;0.80;;;;;;;;;;5031658;28;20850;-91
2022/09/18 14:51:16;;;;;;;1.63;0.80;;;;;;;;;;5036569;28;20481;-92
2022/09/18 14:53:43;;;;;;;1.65;0.70;;;;;;;;;;5026323;28;20444;-93
2022/09/18 14:59:27;;;;;;;1.20;0.50;;;;;;;;;;6012429;22;20445;-90
2022/09/18 15:02:14;;;;;;;1.23;0.60;;;;;;;;;;4951796;28;20938;-90
2022/09/18 15:04:44;;;;;;;1.87;0.70;;;;;;;;;;5040662;28;20393;-91
2022/09/18 15:07:20;;;;;;;1.60;0.70;;;;;;;;;;5048900;28;20412;-90
2022/09/18 15:09:51;;;;;;;1.15;0.60;;;;;;;;;;5046635;28;20495;-89
2022/09/18 15:12:19;;;;;;;1.58;0.68;;;;;;;;;;5048234;28;20394;-90
2022/09/18 15:14:54;;;;;;;1.30;0.60;;;;;;;;;;5052785;28;20472;-91
2022/09/18 15:34:36;;;;;;;;;;;;;;;;;;;;;
2022/09/18 15:37:13;;;;;;;2.05;0.88;;;;;;;;;;5051434;28;20476;-92
2022/09/18 15:40:02;;;;;;;1.00;0.70;;;;;;;;;;5062116;28;20412;-91
2022/09/18 15:42:35;;;;;;;1.08;0.68;;;;;;;;;;5065782;28;20386;-91
2022/09/18 15:45:02;;;;;;;1.95;0.80;;;;;;;;;;5057383;28;20406;-90
2022/09/18 15:47:31;;;;;;;1.13;0.63;;;;;;;;;;5056432;28;20400;-90
2022/09/18 15:50:02;;;;;;;1.40;0.98;;;;;;;;;;5052360;28;20535;-90
2022/09/18 15:52:35;;;;;;;1.33;0.70;;;;;;;;;;5050182;28;20423;-90
2022/09/18 15:55:10;;;;;;;1.60;0.70;;;;;;;;;;5057247;28;20394;-89
2022/09/18 15:57:46;;;;;;;0.82;0.52;;;;;;;;;;5048724;28;20397;-89
2022/09/18 16:00:16;;;;;;;0.95;0.60;;;;;;;;;;5049668;28;20397;-89
2022/09/18 16:02:42;;;;;;;1.10;0.52;;;;;;;;;;5043683;28;20385;-90
2022/09/18 16:05:13;;;;;;;3.40;0.60;;;;;;;;;;5050392;28;20423;-88
2022/09/18 16:07:42;;;;;;;1.48;0.50;;;;;;;;;;5050583;28;20408;-88
2022/09/18 16:10:31;;;;;;;0.60;0.40;;;;;;;;;;5054356;28;20432;-89
2022/09/18 16:12:57;;;;;;;0.82;0.50;;;;;;;;;;5053247;28;20920;-89
2022/09/18 16:15:24;;;;;;;1.25;0.50;;;;;;;;;;5050590;28;20389;-87
2022/09/18 16:17:50;;;;;;;1.02;0.60;;;;;;;;;;5063429;28;20399;-89
2022/09/18 16:20:27;;;;;;;1.10;0.40;;;;;;;;;;5054043;28;20381;-89
2022/09/18 16:22:56;;;;;;;1.55;0.50;;;;;;;;;;5065848;28;20372;-90
2022/09/18 16:25:28;;;;;;;2.88;0.52;;;;;;;;;;5053226;28;20390;-89
2022/09/18 16:27:55;;;;;;;1.27;0.40;;;;;;;;;;5049049;28;20385;-89
2022/09/18 16:30:21;;;;;;;0.60;0.30;;;;;;;;;;5049680;28;20397;-90
2022/09/18 16:32:47;;;;;;;0.95;0.40;;;;;;;;;;5031405;28;20406;-90
2022/09/18 16:35:14;;;;;;;1.77;0.50;;;;;;;;;;5046391;28;20879;-90
2022/09/18 16:37:41;;;;;;;1.10;0.50;;;;;;;;;;5051523;28;20547;-91
2022/09/18 16:40:25;;;;;;;1.73;0.52;;;;;;;;;;5052196;28;20875;-91
2022/09/18 16:42:54;;;;;;;1.50;0.40;;;;;;;;;;5045343;28;20392;-90
2022/09/18 16:45:22;;;;;;;1.05;0.50;;;;;;;;;;5067187;28;20478;-90
2022/09/18 16:47:50;;;;;;;1.95;0.50;;;;;;;;;;5038109;28;20850;-91
2022/09/18 16:50:17;;;;;;;1.25;0.52;;;;;;;;;;5051817;28;20408;-87
2022/09/18 16:52:43;;;;;;;1.85;0.50;;;;;;;;;;5051766;28;20377;-91
2022/09/18 16:55:09;;;;;;;1.30;0.73;;;;;;;;;;5054946;28;20393;-92
2022/09/18 16:57:35;;;;;;;2.30;0.60;;;;;;;;;;5055902;28;20432;-91
2022/09/18 17:00:05;;;;;;;2.10;0.70;;;;;;;;;;5055518;28;20495;-89
2022/09/18 17:02:31;;;;;;;2.25;0.70;;;;;;;;;;5054119;28;20758;-90
2022/09/18 17:04:59;;;;;;;1.65;0.50;;;;;;;;;;5054258;28;20426;-89
2022/09/18 17:07:25;;;;;;;1.67;0.60;;;;;;;;;;5067598;28;20383;-91
2022/09/18 17:09:51;;;;;;;1.85;0.40;;;;;;;;;;5069581;28;20439;-90
2022/09/18 17:12:17;;;;;;;1.05;0.50;;;;;;;;;;5064836;28;20894;-91
2022/09/18 17:14:43;;;;;;;2.05;0.68;;;;;;;;;;5058567;28;20385;-89
2022/09/18 17:17:10;;;;;;;1.27;0.50;;;;;;;;;;5062529;28;20392;-92
2022/09/18 17:19:38;;;;;;;1.35;0.60;;;;;;;;;;5059155;28;20391;-90
2022/09/18 17:22:04;;;;;;;1.52;0.50;;;;;;;;;;5054441;28;20381;-90
2022/09/18 17:24:30;;;;;;;1.53;0.57;;;;;;;;;;5055110;28;20739;-90
2022/09/18 17:26:56;;;;;;;3.15;0.60;;;;;;;;;;5068502;28;20390;-90
2022/09/18 17:29:22;;;;;;;1.00;0.50;;;;;;;;;;5065158;28;20779;-91
2022/09/18 17:31:48;;;;;;;1.63;0.50;;;;;;;;;;5060282;28;20386;-91
2022/09/18 17:37:07;;;;;;;2.17;0.60;;;;;;;;;;5062165;28;20408;-89
2022/09/18 17:39:38;;;;;;;1.48;0.40;;;;;;;;;;5051162;28;20387;-91
2022/09/18 17:42:13;;;;;;;1.60;0.50;;;;;;;;;;5035211;28;20821;-92
2022/09/18 18:09:54;;;;;;;1.77;0.60;;;;;;;;;;5088659;28;20871;-91
2022/09/18 18:12:36;;;;;;;1.65;0.70;;;;;;;;;;5095900;28;20461;-92
2022/09/18 18:15:07;;;;;;;1.90;0.60;;;;;;;;;;5110669;28;20372;-91
2022/09/18 18:23:42;;;;;;;1.30;0.80;;;;;;;;;;4983994;28;20868;-91
2022/09/18 18:38:20;;;;;;;1.60;0.63;;;;;;;;;;5795151;22;20433;-91
2022/09/18 18:40:50;;;;;;;1.00;0.50;;;;;;;;;;5081147;28;20375;-92
2022/09/18 18:43:16;;;;;;;4.80;0.73;;;;;;;;;;5066087;28;20940;-92
2022/09/18 18:45:51;;;;;;;1.85;0.70;;;;;;;;;;5075224;28;20471;-92
2022/09/18 18:48:37;;;;;;;1.17;0.60;;;;;;;;;;5078023;28;20375;-92
2022/09/18 18:51:21;;;;;;;1.30;0.70;;;;;;;;;;5072348;28;20375;-92
2022/09/18 18:53:47;;;;;;;1.88;0.80;;;;;;;;;;5086397;28;20388;-84
2022/09/18 18:56:15;;;;;;;1.83;0.70;;;;;;;;;;5072729;28;20882;-85
2022/09/18 18:58:42;;;;;;;1.50;0.80;;;;;;;;;;5076219;28;20897;-85
2022/09/18 19:01:16;;;;;;;1.80;0.60;;;;;;;;;;5065073;28;20399;-86
2022/09/18 19:03:48;;;;;;;1.02;0.57;;;;;;;;;;5074184;28;20739;-84
2022/09/18 19:06:14;;;;;;;1.50;0.60;;;;;;;;;;5073271;28;20845;-85
2022/09/18 19:08:40;;;;;;;0.90;0.50;;;;;;;;;;5072551;28;20876;-84
2022/09/18 19:11:07;;;;;;;1.35;0.77;;;;;;;;;;5074061;28;20383;-85
2022/09/18 19:13:43;;;;;;;0.82;0.50;;;;;;;;;;5074113;28;20390;-84
2022/09/18 19:16:10;;;;;;;2.47;0.75;;;;;;;;;;5073811;28;20380;-83
2022/09/18 19:18:36;;;;;;;1.20;0.75;;;;;;;;;;5072866;28;20466;-84
2022/09/18 19:21:02;;;;;;;2.10;0.80;;;;;;;;;;5072097;28;20401;-83
2022/09/18 19:23:28;;;;;;;2.45;0.63;;;;;;;;;;5071828;28;20415;-83
2022/09/18 19:25:58;;;;;;;2.20;0.60;;;;;;;;;;5063163;28;20577;-82
2022/09/18 19:28:27;;;;;;;1.48;0.57;;;;;;;;;;5068459;28;20403;-83
2022/09/18 19:30:53;;;;;;;1.80;0.77;;;;;;;;;;5071668;28;20437;-83
2022/09/18 19:33:21;;;;;;;1.52;0.65;;;;;;;;;;5073459;28;20908;-83
2022/09/18 19:35:47;;;;;;;2.85;0.77;;;;;;;;;;5067135;28;20388;-83
2022/09/18 19:38:16;;;;;;;2.90;0.70;;;;;;;;;;5062639;28;20420;-83
2022/09/18 19:40:42;;;;;;;1.55;0.63;;;;;;;;;;5063972;28;20395;-83
2022/09/18 19:43:12;;;;;;;1.50;0.77;;;;;;;;;;5071727;28;20892;-82
2022/09/18 19:45:38;;;;;;;1.27;0.70;;;;;;;;;;5071297;28;20407;-82
2022/09/18 19:48:06;;;;;;;2.25;0.90;;;;;;;;;;5070297;28;20392;-83
2022/09/18 19:50:34;;;;;;;1.40;0.77;;;;;;;;;;5074803;28;20462;-83
2022/09/18 19:53:00;;;;;;;1.50;0.60;;;;;;;;;;5028575;28;20411;-83
2022/09/18 19:55:27;;;;;;;3.70;0.90;;;;;;;;;;5065227;28;20392;-83
2022/09/18 19:57:58;;;;;;;1.83;0.80;;;;;;;;;;5065988;28;20423;-82
2022/09/18 20:00:25;;;;;;;1.23;0.60;;;;;;;;;;5073775;28;20420;-83
2022/09/18 20:02:51;;;;;;;2.03;0.90;;;;;;;;;;5069979;28;20390;-83
2022/09/18 20:05:17;;;;;;;1.70;0.80;;;;;;;;;;5063610;28;20397;-83
2022/09/18 20:07:43;;;;;;;2.22;0.63;;;;;;;;;;5067679;28;20738;-84
2022/09/18 20:10:13;;;;;;;1.48;0.80;;;;;;;;;;5066703;28;20408;-82
2022/09/18 20:12:40;;;;;;;2.08;0.85;;;;;;;;;;5072295;28;20436;-84
2022/09/18 20:15:08;;;;;;;3.35;1.00;;;;;;;;;;5064471;28;20447;-83
2022/09/18 20:17:34;;;;;;;2.10;0.70;;;;;;;;;;5073861;28;20505;-84
2022/09/18 20:20:00;;;;;;;1.42;0.82;;;;;;;;;;5067857;28;20986;-83
2022/09/18 20:22:26;;;;;;;1.25;0.60;;;;;;;;;;5069256;28;20399;-84
2022/09/18 20:24:53;;;;;;;1.58;0.70;;;;;;;;;;5070161;28;20420;-84
2022/09/18 20:27:19;;;;;;;1.20;0.80;;;;;;;;;;5069580;28;20395;-84
2022/09/18 20:29:45;;;;;;;1.48;0.77;;;;;;;;;;5072016;28;20398;-84
2022/09/18 20:32:11;;;;;;;1.27;0.70;;;;;;;;;;5074085;28;20485;-83
2022/09/18 20:34:37;;;;;;;1.85;0.55;;;;;;;;;;5075968;28;20386;-84
2022/09/18 20:37:09;;;;;;;1.48;0.60;;;;;;;;;;5071736;28;20399;-83
2022/09/18 20:39:38;;;;;;;2.83;0.82;;;;;;;;;;5078657;28;20426;-83
2022/09/18 20:42:04;;;;;;;2.30;0.80;;;;;;;;;;5068764;28;20955;-84
2022/09/18 20:44:33;;;;;;;1.33;0.63;;;;;;;;;;5074625;28;20844;-83
2022/09/18 20:46:59;;;;;;;2.20;0.70;;;;;;;;;;5053468;28;20884;-83
2022/09/18 20:49:25;;;;;;;1.02;0.60;;;;;;;;;;5068791;28;20413;-84
2022/09/18 20:51:51;;;;;;;2.92;0.80;;;;;;;;;;5074734;28;20448;-84
2022/09/18 20:54:21;;;;;;;1.92;0.73;;;;;;;;;;5070093;28;20758;-84
2022/09/18 20:56:47;;;;;;;1.80;0.60;;;;;;;;;;5057846;28;20394;-84
2022/09/18 20:59:15;;;;;;;0.95;0.68;;;;;;;;;;5074635;28;20412;-84
2022/09/18 21:01:41;;;;;;;1.80;0.70;;;;;;;;;;5055445;28;20397;-84
2022/09/18 21:04:08;;;;;;;1.30;0.77;;;;;;;;;;5055624;28;20416;-84
2022/09/18 21:06:35;;;;;;;2.13;0.63;;;;;;;;;;5070261;28;20372;-84
2022/09/18 21:09:06;;;;;;;1.00;0.60;;;;;;;;;;5069172;28;20414;-85
2022/09/18 21:11:35;;;;;;;1.40;0.60;;;;;;;;;;5055720;28;20392;-84
2022/09/18 21:14:02;;;;;;;1.63;0.57;;;;;;;;;;5050669;28;20923;-84
2022/09/18 21:16:29;;;;;;;1.80;0.70;;;;;;;;;;5069393;28;20622;-86
2022/09/18 21:19:00;;;;;;;1.30;0.70;;;;;;;;;;5076902;28;20869;-88
2022/09/18 21:21:27;;;;;;;1.40;0.60;;;;;;;;;;5070572;28;20456;-89
2022/09/18 21:24:00;;;;;;;1.02;0.60;;;;;;;;;;5078900;28;20906;-88
2022/09/18 21:26:26;;;;;;;1.80;0.80;;;;;;;;;;5075838;28;20392;-88
2022/09/18 21:28:57;;;;;;;3.50;0.87;;;;;;;;;;5078593;28;20894;-89
2022/09/18 21:31:24;;;;;;;2.17;0.73;;;;;;;;;;5069831;28;20745;-87
2022/09/18 21:33:53;;;;;;;1.52;0.82;;;;;;;;;;5070228;28;20853;-89
2022/09/18 21:36:22;;;;;;;2.08;0.80;;;;;;;;;;5070938;28;20380;-87
2022/09/18 21:38:49;;;;;;;1.90;0.80;;;;;;;;;;5074789;28;21023;-91
2022/09/18 21:41:15;;;;;;;1.38;0.70;;;;;;;;;;5080623;28;20382;-90
2022/09/18 21:43:42;;;;;;;1.73;0.80;;;;;;;;;;5081796;28;20449;-90
2022/09/18 21:46:12;;;;;;;1.20;0.55;;;;;;;;;;5077712;28;20431;-91
2022/09/18 21:48:39;;;;;;;1.80;0.60;;;;;;;;;;5095575;28;20389;-90
2022/09/18 21:51:09;;;;;;;1.58;0.73;;;;;;;;;;5080569;28;20379;-89
2022/09/18 21:53:38;;;;;;;1.50;0.63;;;;;;;;;;5093227;28;20400;-90
2022/09/18 21:56:05;;;;;;;1.67;0.85;;;;;;;;;;5074863;28;20395;-91
2022/09/18 21:58:33;;;;;;;1.40;0.60;;;;;;;;;;5085990;28;20401;-91
